createdAt,value
2023-03-20T00:02:24.556Z,100.00
2023-03-20T00:04:52.684Z,100.00
2023-03-20T00:07:21.385Z,100.00
2023-03-20T00:09:49.553Z,100.00
2023-03-20T00:12:26.371Z,100.00
2023-03-20T00:14:54.772Z,100.00
2023-03-20T00:17:23.033Z,100.00
2023-03-20T00:19:51.597Z,100.00
2023-03-20T00:22:19.262Z,100.00
2023-03-20T00:24:47.572Z,100.00
2023-03-20T00:27:18.209Z,100.00
2023-03-20T00:29:46.151Z,100.00
2023-03-20T00:32:15.337Z,100.00
2023-03-20T00:34:43.506Z,100.00
2023-03-20T00:37:11.947Z,100.00
2023-03-20T00:39:40.801Z,100.00
2023-03-20T00:42:20.500Z,100.00
2023-03-20T00:44:54.184Z,100.00
2023-03-20T00:47:27.230Z,100.00
2023-03-20T00:49:56.103Z,100.00
2023-03-20T00:52:24.582Z,100.00
2023-03-20T00:54:52.891Z,100.00
2023-03-20T00:57:27.952Z,100.00
2023-03-20T01:00:21.286Z,100.00
2023-03-20T01:02:50.073Z,100.00
2023-03-20T01:05:18.093Z,100.00
2023-03-20T01:07:46.845Z,100.00
2023-03-20T01:10:15.061Z,100.00
2023-03-20T01:12:43.792Z,100.00
2023-03-20T01:15:32.871Z,100.00
2023-03-20T01:18:00.844Z,100.00
2023-03-20T01:20:30.432Z,100.00
2023-03-20T01:22:58.501Z,100.00
2023-03-20T01:25:26.251Z,100.00
2023-03-20T01:27:55.162Z,100.00
2023-03-20T01:30:28.827Z,100.00
2023-03-20T01:32:57.806Z,100.00
2023-03-20T01:35:28.175Z,100.00
2023-03-20T01:37:58.815Z,100.00
2023-03-20T01:40:40.757Z,100.00
2023-03-20T01:43:17.348Z,100.00
2023-03-20T01:46:11.344Z,100.00
2023-03-20T01:48:53.604Z,100.00
2023-03-20T01:51:26.540Z,100.00
2023-03-20T01:54:09.719Z,100.00
2023-03-20T01:56:52.533Z,100.00
2023-03-20T01:59:32.112Z,100.00
2023-03-20T02:02:01.134Z,100.00
2023-03-20T02:04:34.975Z,100.00
2023-03-20T02:07:14.242Z,100.00
2023-03-20T02:09:48.177Z,100.00
2023-03-20T02:12:22.067Z,100.00
2023-03-20T02:14:53.214Z,100.00
2023-03-20T02:17:42.798Z,100.00
2023-03-20T02:21:10.820Z,100.00
2023-03-20T02:24:02.425Z,100.00
2023-03-20T02:26:46.273Z,100.00
2023-03-20T02:29:50.839Z,100.00
2023-03-20T02:32:51.056Z,100.00
2023-03-20T02:35:42.877Z,100.00
2023-03-20T02:38:48.301Z,100.00
2023-03-20T02:41:55.679Z,100.00
2023-03-20T02:44:43.949Z,100.00
2023-03-20T02:47:19.835Z,100.00
2023-03-20T02:49:48.134Z,100.00
2023-03-20T02:52:27.750Z,100.00
2023-03-20T02:55:16.110Z,100.00
2023-03-20T02:57:56.574Z,100.00
2023-03-20T03:00:39.422Z,100.00
2023-03-20T03:03:11.710Z,100.00
2023-03-20T03:05:50.902Z,100.00
2023-03-20T03:08:22.542Z,100.00
2023-03-20T03:10:57.595Z,100.00
2023-03-20T03:13:30.155Z,100.00
2023-03-20T03:16:10.439Z,100.00
2023-03-20T03:18:41.698Z,100.00
2023-03-20T03:21:13.560Z,100.00
2023-03-20T03:23:49.481Z,100.00
2023-03-20T03:26:39.922Z,100.00
2023-03-20T03:29:15.637Z,100.00
2023-03-20T03:31:46.147Z,100.00
2023-03-20T03:34:18.105Z,100.00
2023-03-20T03:37:17.837Z,100.00
2023-03-20T03:40:19.822Z,100.00
2023-03-20T03:42:59.636Z,100.00
2023-03-20T03:45:42.210Z,100.00
2023-03-20T03:48:24.383Z,100.00
2023-03-20T03:51:02.336Z,100.00
2023-03-20T03:53:35.042Z,100.00
2023-03-20T03:56:07.134Z,100.00
2023-03-20T03:58:57.988Z,100.00
2023-03-20T04:01:27.557Z,100.00
2023-03-20T04:04:01.232Z,100.00
2023-03-20T04:06:29.483Z,100.00
2023-03-20T04:08:57.445Z,100.00
2023-03-20T04:11:29.903Z,100.00
2023-03-20T04:13:57.978Z,100.00
2023-03-20T04:16:27.202Z,100.00
2023-03-20T04:18:56.580Z,100.00
2023-03-20T04:21:25.447Z,100.00
2023-03-20T04:23:53.866Z,100.00
2023-03-20T04:26:23.615Z,100.00
2023-03-20T04:28:52.201Z,100.00
2023-03-20T04:31:39.309Z,100.00
2023-03-20T04:34:30.270Z,100.00
2023-03-20T04:37:03.465Z,100.00
2023-03-20T04:39:44.044Z,100.00
2023-03-20T04:42:13.207Z,100.00
2023-03-20T04:44:41.261Z,100.00
2023-03-20T04:47:09.326Z,100.00
2023-03-20T04:49:41.146Z,100.00
2023-03-20T04:52:09.294Z,100.00
2023-03-20T04:54:41.074Z,100.00
2023-03-20T04:57:08.786Z,100.00
2023-03-20T04:59:38.529Z,100.00
2023-03-20T05:02:06.769Z,100.00
2023-03-20T05:04:35.013Z,100.00
2023-03-20T05:07:03.372Z,100.00
2023-03-20T05:09:39.481Z,100.00
2023-03-20T05:12:13.298Z,100.00
2023-03-20T05:14:58.130Z,100.00
2023-03-20T05:17:47.320Z,100.00
2023-03-20T05:20:15.453Z,100.00
2023-03-20T05:23:06.619Z,100.00
2023-03-20T05:25:47.322Z,100.00
2023-03-20T05:28:38.647Z,100.00
2023-03-20T05:31:27.041Z,100.00
2023-03-20T05:34:14.881Z,100.00
2023-03-20T05:37:01.067Z,100.00
2023-03-20T05:39:47.546Z,100.00
2023-03-20T05:42:39.220Z,100.00
2023-03-20T05:45:20.499Z,100.00
2023-03-20T05:48:12.822Z,100.00
2023-03-20T05:50:40.982Z,100.00
2023-03-20T05:53:11.836Z,100.00
2023-03-20T05:55:58.285Z,100.00
2023-03-20T05:58:42.385Z,100.00
2023-03-20T06:01:42.392Z,100.00
2023-03-20T06:04:22.889Z,100.00
2023-03-20T06:07:10.940Z,100.00
2023-03-20T06:09:42.761Z,100.00
2023-03-20T06:12:14.277Z,100.00
2023-03-20T06:14:42.468Z,100.00
2023-03-20T06:17:10.879Z,100.00
2023-03-20T06:19:38.720Z,100.00
2023-03-20T06:22:07.415Z,100.00
2023-03-20T06:24:36.096Z,100.00
2023-03-20T06:27:05.018Z,100.00
2023-03-20T06:29:33.158Z,100.00
2023-03-20T06:32:14.791Z,100.00
2023-03-20T06:34:43.141Z,100.00
2023-03-20T06:37:11.617Z,100.00
2023-03-20T06:39:39.580Z,100.00
2023-03-20T06:42:15.047Z,100.00
2023-03-20T06:44:44.961Z,100.00
2023-03-20T06:47:31.526Z,100.00
2023-03-20T06:49:59.576Z,100.00
2023-03-20T06:52:27.714Z,100.00
2023-03-20T06:55:15.791Z,96.46
2023-03-20T06:57:45.143Z,94.94
2023-03-20T07:00:14.539Z,94.30
2023-03-20T07:02:43.197Z,93.46
2023-03-20T07:05:16.030Z,94.95
2023-03-20T07:07:43.869Z,94.63
2023-03-20T07:10:12.613Z,93.85
2023-03-20T07:12:44.691Z,93.63
2023-03-20T07:15:12.741Z,94.32
2023-03-20T07:17:40.568Z,95.47
2023-03-20T07:20:10.115Z,97.58
2023-03-20T07:22:38.310Z,96.41
2023-03-20T07:25:26.165Z,96.42
2023-03-20T07:28:00.578Z,99.68
2023-03-20T07:30:30.007Z,99.71
2023-03-20T07:32:58.069Z,100.00
2023-03-20T07:35:29.790Z,100.00
2023-03-20T07:37:58.336Z,100.00
2023-03-20T07:40:27.168Z,100.00
2023-03-20T07:43:02.982Z,98.74
2023-03-20T07:45:49.880Z,100.00
2023-03-20T07:48:20.596Z,100.00
2023-03-20T07:50:48.141Z,100.00
2023-03-20T07:53:15.806Z,98.70
2023-03-20T07:55:45.253Z,98.87
2023-03-20T07:58:12.840Z,96.56
2023-03-20T08:00:41.306Z,93.69
2023-03-20T08:03:09.791Z,94.14
2023-03-20T08:05:38.918Z,90.77
2023-03-20T08:08:07.105Z,89.77
2023-03-20T08:10:35.948Z,88.27
2023-03-20T08:13:03.539Z,86.87
2023-03-20T08:15:31.777Z,89.70
2023-03-20T08:17:59.896Z,89.94
2023-03-20T08:20:28.371Z,87.42
2023-03-20T08:22:56.609Z,85.38
2023-03-20T08:25:24.286Z,83.39
2023-03-20T08:27:51.875Z,79.44
2023-03-20T08:30:19.961Z,79.83
2023-03-20T08:32:47.590Z,81.30
2023-03-20T08:35:31.543Z,77.36
2023-03-20T08:38:00.454Z,73.96
2023-03-20T08:40:29.061Z,73.95
2023-03-20T08:42:56.715Z,76.36
2023-03-20T08:45:26.363Z,75.00
2023-03-20T08:47:55.088Z,70.39
2023-03-20T08:50:23.599Z,72.28
2023-03-20T08:52:51.212Z,70.90
2023-03-20T08:55:20.038Z,69.89
2023-03-20T08:57:48.754Z,70.46
2023-03-20T09:00:17.131Z,66.06
2023-03-20T09:02:45.605Z,63.63
2023-03-20T09:05:13.730Z,57.22
2023-03-20T09:07:41.749Z,56.89
2023-03-20T09:10:10.836Z,59.79
2023-03-20T09:12:39.808Z,60.91
2023-03-20T09:15:08.378Z,59.05
2023-03-20T09:17:36.998Z,54.24
2023-03-20T09:20:06.461Z,51.18
2023-03-20T09:22:34.107Z,50.92
2023-03-20T09:25:01.859Z,48.38
2023-03-20T09:27:30.067Z,45.96
2023-03-20T09:29:58.184Z,44.12
2023-03-20T09:32:25.844Z,46.22
2023-03-20T09:34:53.624Z,44.70
2023-03-20T09:37:22.149Z,42.66
2023-03-20T09:39:50.255Z,41.49
2023-03-20T09:42:39.575Z,39.43
2023-03-20T09:45:22.748Z,39.57
2023-03-20T09:48:19.960Z,40.26
2023-03-20T09:51:22.506Z,39.08
2023-03-20T09:53:59.292Z,39.09
2023-03-20T09:56:29.977Z,38.51
2023-03-20T09:59:04.853Z,37.26
2023-03-20T10:01:43.585Z,37.70
2023-03-20T10:04:12.597Z,38.49
2023-03-20T10:06:40.491Z,37.05
2023-03-20T10:09:24.844Z,36.29
2023-03-20T10:12:02.672Z,36.18
2023-03-20T10:14:58.989Z,38.12
2023-03-20T10:17:52.106Z,39.36
2023-03-20T10:20:34.445Z,41.05
2023-03-20T10:23:25.686Z,38.96
2023-03-20T10:26:03.215Z,36.39
2023-03-20T10:29:03.710Z,38.31
2023-03-20T10:31:34.616Z,38.10
2023-03-20T10:34:20.267Z,37.86
2023-03-20T10:37:23.396Z,36.15
2023-03-20T10:39:54.966Z,35.16
2023-03-20T10:42:31.046Z,34.85
2023-03-20T10:45:23.784Z,35.82
2023-03-20T10:47:52.821Z,37.25
2023-03-20T10:50:29.024Z,36.48
2023-03-20T10:52:58.331Z,35.02
2023-03-20T10:55:34.869Z,34.96
2023-03-20T10:58:11.904Z,34.36
2023-03-20T11:00:40.776Z,33.26
2023-03-20T11:03:20.565Z,33.83
2023-03-20T11:06:08.830Z,32.40
2023-03-20T11:08:41.971Z,34.03
2023-03-20T11:11:10.870Z,33.34
2023-03-20T11:13:45.074Z,32.17
2023-03-20T11:16:36.801Z,32.31
2023-03-20T11:19:07.718Z,30.28
2023-03-20T11:21:45.465Z,29.76
2023-03-20T11:24:40.101Z,31.31
2023-03-20T11:27:13.305Z,32.21
2023-03-20T11:29:45.258Z,30.28
2023-03-20T11:32:31.496Z,31.72
2023-03-20T11:35:23.022Z,29.80
2023-03-20T11:37:53.623Z,29.77
2023-03-20T11:40:35.052Z,32.12
2023-03-20T11:43:10.597Z,31.96
2023-03-20T11:45:44.952Z,33.05
2023-03-20T11:48:25.518Z,33.30
2023-03-20T11:51:09.692Z,31.88
2023-03-20T11:53:48.265Z,32.31
2023-03-20T11:56:29.018Z,31.98
2023-03-20T11:59:18.520Z,30.88
2023-03-20T12:01:53.467Z,30.12
2023-03-20T12:04:31.603Z,30.50
2023-03-20T12:07:04.919Z,29.83
2023-03-20T12:09:41.124Z,28.01
2023-03-20T12:12:34.003Z,28.06
2023-03-20T12:15:10.552Z,26.92
2023-03-20T12:17:47.553Z,28.37
2023-03-20T12:20:25.348Z,30.90
2023-03-20T12:23:14.749Z,31.98
2023-03-20T12:25:52.527Z,30.66
2023-03-20T12:28:20.692Z,29.18
2023-03-20T12:30:58.956Z,28.79
2023-03-20T12:33:38.560Z,28.22
2023-03-20T12:36:15.192Z,27.63
2023-03-20T12:38:44.824Z,27.20
2023-03-20T12:41:15.030Z,27.47
2023-03-20T12:43:49.109Z,28.42
2023-03-20T12:46:35.783Z,28.49
2023-03-20T12:49:41.810Z,27.88
2023-03-20T12:52:32.676Z,27.97
2023-03-20T12:55:16.289Z,28.47
2023-03-20T12:57:47.789Z,28.48
2023-03-20T13:00:32.211Z,28.73
2023-03-20T13:03:22.298Z,26.97
2023-03-20T13:05:58.780Z,27.37
2023-03-20T13:08:43.243Z,26.59
2023-03-20T13:11:31.884Z,28.34
2023-03-20T13:14:14.850Z,28.04
2023-03-20T13:17:02.135Z,29.84
2023-03-20T13:19:41.820Z,29.63
2023-03-20T13:22:31.114Z,31.50
2023-03-20T13:25:18.898Z,33.91
2023-03-20T13:27:57.474Z,29.40
2023-03-20T13:30:41.048Z,27.56
2023-03-20T13:33:34.833Z,28.76
2023-03-20T13:36:14.818Z,30.82
2023-03-20T13:38:52.813Z,30.58
2023-03-20T13:41:24.904Z,27.48
2023-03-20T13:43:58.769Z,25.62
2023-03-20T13:46:36.415Z,25.54
2023-03-20T13:49:17.064Z,24.82
2023-03-20T13:51:55.385Z,23.30
2023-03-20T13:54:38.616Z,22.25
2023-03-20T13:57:32.568Z,21.82
2023-03-20T14:00:25.351Z,25.86
2023-03-20T14:03:33.569Z,27.93
2023-03-20T14:06:02.123Z,25.59
2023-03-20T14:08:38.232Z,23.04
2023-03-20T14:11:21.570Z,24.34
2023-03-20T14:13:58.458Z,25.04
2023-03-20T14:16:29.224Z,27.15
2023-03-20T14:19:25.534Z,29.95
2023-03-20T14:21:57.571Z,29.98
2023-03-20T14:24:28.827Z,31.50
2023-03-20T14:26:58.845Z,31.82
2023-03-20T14:29:29.910Z,32.60
2023-03-20T14:32:13.383Z,32.71
2023-03-20T14:34:59.482Z,34.14
2023-03-20T14:37:30.327Z,32.27
2023-03-20T14:40:08.336Z,29.06
2023-03-20T14:42:48.197Z,27.94
2023-03-20T14:45:26.207Z,26.06
2023-03-20T14:48:11.907Z,30.03
2023-03-20T14:50:51.122Z,32.58
2023-03-20T14:53:27.531Z,29.48
2023-03-20T14:55:56.259Z,29.36
2023-03-20T14:58:51.491Z,27.83
2023-03-20T15:01:22.189Z,26.45
2023-03-20T15:04:10.341Z,28.69
2023-03-20T15:06:50.731Z,26.28
2023-03-20T15:09:23.323Z,24.82
2023-03-20T15:11:52.793Z,23.84
2023-03-20T15:14:28.436Z,25.95
2023-03-20T15:17:02.317Z,27.74
2023-03-20T15:19:31.993Z,26.90
2023-03-20T15:22:00.798Z,28.98
2023-03-20T15:24:30.850Z,27.36
2023-03-20T15:27:01.139Z,28.28
2023-03-20T15:29:32.681Z,27.98
2023-03-20T15:32:14.129Z,28.78
2023-03-20T15:34:44.188Z,28.05
2023-03-20T15:37:16.588Z,27.41
2023-03-20T15:39:51.902Z,29.00
2023-03-20T15:42:22.586Z,29.33
2023-03-20T15:44:53.486Z,31.15
2023-03-20T15:47:24.935Z,31.33
2023-03-20T15:49:56.087Z,29.97
2023-03-20T15:52:39.885Z,32.85
2023-03-20T15:55:15.041Z,34.29
2023-03-20T15:57:47.396Z,35.50
2023-03-20T16:00:17.083Z,38.60
2023-03-20T16:02:48.535Z,39.68
2023-03-20T16:05:18.433Z,39.37
2023-03-20T16:07:47.453Z,39.50
2023-03-20T16:10:19.819Z,40.84
2023-03-20T16:12:54.641Z,42.12
2023-03-20T16:15:27.762Z,42.80
2023-03-20T16:18:01.484Z,43.71
2023-03-20T16:20:33.468Z,43.41
2023-03-20T16:23:05.617Z,44.38
2023-03-20T16:25:35.868Z,44.44
2023-03-20T16:28:07.317Z,45.77
2023-03-20T16:30:36.921Z,45.54
2023-03-20T16:33:16.587Z,45.89
2023-03-20T16:35:48.725Z,45.59
2023-03-20T16:38:31.868Z,45.27
2023-03-20T16:41:31.157Z,46.43
2023-03-20T16:44:00.482Z,47.58
2023-03-20T16:46:28.709Z,46.46
2023-03-20T16:49:19.799Z,46.84
2023-03-20T16:51:49.105Z,47.26
2023-03-20T16:54:21.499Z,48.92
2023-03-20T16:56:54.222Z,48.99
2023-03-20T16:59:24.944Z,49.08
2023-03-20T17:01:54.394Z,49.80
2023-03-20T17:04:27.943Z,50.66
2023-03-20T17:07:01.540Z,51.19
2023-03-20T17:09:31.349Z,52.19
2023-03-20T17:12:19.567Z,52.14
2023-03-20T17:14:47.622Z,53.37
2023-03-20T17:17:19.622Z,54.44
2023-03-20T17:19:53.195Z,56.67
2023-03-20T17:22:24.156Z,57.14
2023-03-20T17:24:52.841Z,58.29
2023-03-20T17:27:21.415Z,59.36
2023-03-20T17:29:49.918Z,60.86
2023-03-20T17:32:20.153Z,60.83
2023-03-20T17:34:48.272Z,60.88
2023-03-20T17:37:29.870Z,60.85
2023-03-20T17:39:57.974Z,61.13
2023-03-20T17:42:31.457Z,62.29
2023-03-20T17:45:01.439Z,62.71
2023-03-20T17:47:30.424Z,62.32
2023-03-20T17:49:58.897Z,63.95
2023-03-20T17:52:29.367Z,70.35
2023-03-20T17:54:57.694Z,75.41
2023-03-20T17:57:28.424Z,80.23
2023-03-20T17:59:56.582Z,83.85
2023-03-20T18:02:25.078Z,87.39
2023-03-20T18:04:53.506Z,90.96
2023-03-20T18:07:21.376Z,91.95
2023-03-20T18:09:49.659Z,93.16
2023-03-20T18:12:18.979Z,96.62
2023-03-20T18:14:47.330Z,97.68
2023-03-20T18:17:16.596Z,99.02
2023-03-20T18:19:45.009Z,100.00
2023-03-20T18:22:13.274Z,100.00
2023-03-20T18:24:44.883Z,100.00
2023-03-20T18:27:13.705Z,100.00
2023-03-20T18:29:42.211Z,100.00
2023-03-20T18:32:10.503Z,100.00
2023-03-20T18:34:38.632Z,100.00
2023-03-20T18:37:09.270Z,100.00
2023-03-20T18:39:37.334Z,100.00
2023-03-20T18:42:04.966Z,100.00
2023-03-20T18:44:33.419Z,100.00
2023-03-20T18:47:01.631Z,100.00
2023-03-20T18:49:31.127Z,100.00
2023-03-20T18:51:58.853Z,100.00
2023-03-20T18:54:27.242Z,100.00
2023-03-20T18:56:59.943Z,100.00
2023-03-20T18:59:28.446Z,100.00
2023-03-20T19:01:56.428Z,100.00
2023-03-20T19:04:24.547Z,100.00
2023-03-20T19:06:53.092Z,100.00
2023-03-20T19:09:21.899Z,100.00
2023-03-20T19:11:50.543Z,100.00
2023-03-20T19:14:19.367Z,100.00
2023-03-20T19:16:47.863Z,100.00
2023-03-20T19:19:16.667Z,100.00
2023-03-20T19:21:44.376Z,100.00
2023-03-20T19:24:12.461Z,100.00
2023-03-20T19:26:40.685Z,100.00
2023-03-20T19:29:13.868Z,100.00
2023-03-20T19:31:42.634Z,100.00
2023-03-20T19:34:36.766Z,100.00
2023-03-20T19:36:59.858Z,100.00
2023-03-20T19:39:27.601Z,100.00
2023-03-20T19:41:55.930Z,100.00
2023-03-20T19:44:24.102Z,100.00
2023-03-20T19:46:52.949Z,100.00
2023-03-20T19:49:30.098Z,100.00
2023-03-20T19:51:59.891Z,100.00
2023-03-20T19:54:28.695Z,100.00
2023-03-20T19:56:56.330Z,100.00
2023-03-20T19:59:25.756Z,100.00
2023-03-20T20:01:54.784Z,100.00
2023-03-20T20:04:23.500Z,100.00
2023-03-20T20:06:55.534Z,100.00
2023-03-20T20:09:28.747Z,100.00
2023-03-20T20:11:58.150Z,100.00
2023-03-20T20:14:26.065Z,100.00
2023-03-20T20:16:55.592Z,100.00
2023-03-20T20:19:23.306Z,100.00
2023-03-20T20:22:19.695Z,100.00
2023-03-20T20:24:41.090Z,100.00
2023-03-20T20:27:18.564Z,100.00
2023-03-20T20:29:49.400Z,100.00
2023-03-20T20:32:19.331Z,100.00
2023-03-20T20:40:27.948Z,100.00
2023-03-20T20:43:01.397Z,100.00
2023-03-20T20:45:34.871Z,100.00
2023-03-20T20:48:06.574Z,100.00
2023-03-20T20:50:39.357Z,100.00
2023-03-20T20:53:08.352Z,100.00
2023-03-20T20:55:36.637Z,100.00
2023-03-20T20:58:05.855Z,100.00
2023-03-20T21:00:49.433Z,100.00
2023-03-20T21:03:20.221Z,100.00
2023-03-20T21:05:48.312Z,100.00
2023-03-20T21:08:18.638Z,100.00
2023-03-20T21:10:47.161Z,100.00
2023-03-20T21:13:15.999Z,100.00
2023-03-20T21:15:45.769Z,100.00
2023-03-20T21:18:14.708Z,100.00
2023-03-20T21:20:42.861Z,100.00
2023-03-20T21:23:11.359Z,100.00
2023-03-20T21:25:41.395Z,100.00
2023-03-20T21:28:11.559Z,100.00
2023-03-20T21:30:56.132Z,100.00
2023-03-20T21:33:35.968Z,100.00
2023-03-20T21:36:04.822Z,100.00
2023-03-20T21:39:14.903Z,100.00
2023-03-20T21:41:21.631Z,100.00
2023-03-20T21:43:50.801Z,100.00
2023-03-20T21:46:58.787Z,100.00
2023-03-20T22:03:29.012Z,100.00
2023-03-20T22:07:13.494Z,100.00
2023-03-20T22:09:45.666Z,100.00
2023-03-20T22:12:48.025Z,100.00
2023-03-20T22:17:59.669Z,100.00
2023-03-20T22:21:03.906Z,100.00
2023-03-20T22:29:32.558Z,100.00
2023-03-20T22:35:23.002Z,100.00
2023-03-20T22:38:00.514Z,100.00
2023-03-20T22:40:50.461Z,100.00
2023-03-20T22:43:07.066Z,100.00
2023-03-20T22:45:42.521Z,100.00
2023-03-20T22:48:15.626Z,100.00
2023-03-20T22:50:43.787Z,100.00
2023-03-20T22:53:11.410Z,100.00
2023-03-20T22:55:41.627Z,100.00
2023-03-20T22:58:12.230Z,100.00
2023-03-20T23:00:41.636Z,100.00
2023-03-20T23:03:22.352Z,100.00
2023-03-20T23:06:25.454Z,100.00
2023-03-20T23:08:58.338Z,100.00
2023-03-20T23:11:28.057Z,100.00
2023-03-20T23:13:56.550Z,100.00
2023-03-20T23:16:25.313Z,100.00
2023-03-20T23:18:53.832Z,100.00
2023-03-20T23:21:21.887Z,100.00
2023-03-20T23:23:49.632Z,100.00
2023-03-20T23:26:22.563Z,100.00
2023-03-20T23:28:53.318Z,100.00
2023-03-20T23:31:23.897Z,100.00
2023-03-20T23:33:55.562Z,100.00
2023-03-20T23:36:35.834Z,100.00
2023-03-20T23:39:08.230Z,100.00
2023-03-20T23:42:04.608Z,100.00
2023-03-20T23:44:25.929Z,100.00
2023-03-20T23:46:55.636Z,100.00
2023-03-20T23:49:24.063Z,100.00
2023-03-20T23:51:51.750Z,100.00
2023-03-20T23:54:19.526Z,100.00
2023-03-20T23:56:47.872Z,100.00
2023-03-20T23:59:21.586Z,100.00
